createdAt,value
2023-03-02T00:03:54.802Z,6748.2915
2023-03-02T00:18:57.121Z,7661.36572
2023-03-02T00:33:59.388Z,3426.7395
2023-03-02T00:49:01.821Z,2616.68433
2023-03-02T01:04:04.029Z,1123.45007
2023-03-02T01:19:06.265Z,414.24512
2023-03-02T01:34:08.496Z,134.467
2023-03-02T01:49:10.749Z,16.26617
2023-03-02T02:04:13.155Z,1.08441
2023-03-02T02:19:15.457Z,0
2023-03-02T02:34:17.715Z,0
2023-03-02T02:49:20.046Z,0
2023-03-02T03:04:22.449Z,0
2023-03-02T03:19:24.774Z,0
2023-03-02T03:34:26.982Z,0
2023-03-02T03:49:29.158Z,0
2023-03-02T04:04:31.369Z,0
2023-03-02T04:19:33.736Z,0
2023-03-02T04:34:36.213Z,0
2023-03-02T04:49:38.476Z,0
2023-03-02T05:04:40.756Z,0
2023-03-02T05:19:43.074Z,0
2023-03-02T05:34:45.433Z,0
2023-03-02T05:49:47.685Z,0
2023-03-02T06:04:49.857Z,0
2023-03-02T06:19:52.113Z,0
2023-03-02T06:34:54.791Z,0
2023-03-02T06:49:57.146Z,0
2023-03-02T07:04:59.417Z,0
2023-03-02T07:20:01.900Z,0
2023-03-02T07:35:04.104Z,0
2023-03-02T07:50:06.615Z,0
2023-03-02T08:05:08.859Z,0
2023-03-02T08:20:11.068Z,0
2023-03-02T08:35:13.271Z,0
2023-03-02T08:50:15.552Z,0
2023-03-02T09:05:17.813Z,0
2023-03-02T09:20:19.983Z,0
2023-03-02T09:35:22.197Z,0
2023-03-02T10:05:35.670Z,0
2023-03-02T10:20:37.871Z,0
2023-03-02T10:35:40.458Z,0
2023-03-02T10:50:42.727Z,0
2023-03-02T11:05:45.116Z,0
2023-03-02T11:20:47.288Z,0
2023-03-02T11:35:49.565Z,0
2023-03-02T11:50:52.102Z,0
2023-03-02T12:05:54.608Z,0
2023-03-02T12:20:56.825Z,0
2023-03-02T12:35:59.115Z,0
2023-03-02T12:51:01.431Z,0
2023-03-02T13:06:03.864Z,0
2023-03-02T13:21:06.117Z,0
2023-03-02T13:36:08.592Z,0
2023-03-02T13:51:10.850Z,0
2023-03-02T14:06:13.091Z,1.08441
2023-03-02T14:21:15.393Z,8.67529
2023-03-02T14:36:17.669Z,56.38939
2023-03-02T14:51:19.970Z,160.49287
2023-03-02T15:06:22.190Z,345.92719
2023-03-02T15:21:24.480Z,481.47861
2023-03-02T15:36:26.686Z,664.74408
2023-03-02T15:51:29.073Z,979.22339
2023-03-02T16:06:31.363Z,1286.11182
2023-03-02T16:21:33.646Z,1481.30579
2023-03-02T16:36:35.937Z,1514.92249
2023-03-02T16:51:38.193Z,1934.58972
2023-03-02T17:06:43.498Z,2352.08813
2023-03-02T17:21:45.920Z,2976.70898
2023-03-02T17:36:48.232Z,2705.6062
2023-03-02T17:51:56.736Z,2205.69263
2023-03-02T18:06:59.007Z,2945.26099
2023-03-02T18:22:01.390Z,3778.08887
2023-03-02T18:37:03.484Z,6047.76172
2023-03-02T18:52:05.767Z,7042.1665
2023-03-02T19:07:07.983Z,9124.23633
2023-03-02T19:22:10.175Z,8526.72559
2023-03-02T19:37:19.575Z,7976.9292
2023-03-02T19:52:22.187Z,8538.6543
2023-03-02T20:07:24.483Z,7859.81299
2023-03-02T20:22:26.714Z,5660.62695
2023-03-02T20:37:28.987Z,6515.14307
2023-03-02T20:52:31.235Z,14559.30566
2023-03-02T21:07:33.515Z,20242.70508
2023-03-02T21:22:35.879Z,24125.98242
2023-03-02T21:37:38.172Z,11110.87793
2023-03-02T21:52:40.402Z,19030.33398
2023-03-02T22:07:42.658Z,17559.87109
2023-03-02T22:22:44.851Z,13191.86328
2023-03-02T22:37:47.080Z,17193.33984
2023-03-02T22:52:49.334Z,6612.73975
2023-03-02T23:07:51.770Z,12632.30664
2023-03-02T23:22:54.088Z,19100.82031
2023-03-02T23:37:56.313Z,9049.41211
2023-03-02T23:52:58.560Z,3817.12769
